createdAt,value
2023-05-15T05:56:23.814Z,99099.41
2023-05-15T05:59:08.893Z,99098.88
2023-05-15T06:01:53.691Z,99096.63
2023-05-15T06:04:38.697Z,99096.53
2023-05-15T06:07:23.514Z,99093.19
2023-05-15T06:10:08.929Z,99091.56
2023-05-15T06:12:53.487Z,99087.28
2023-05-15T06:15:38.653Z,99091.16
2023-05-15T06:18:23.804Z,99081.75
2023-05-15T06:21:08.662Z,99090.38
2023-05-15T06:23:53.661Z,99087.16
2023-05-15T06:26:38.277Z,99079.75
2023-05-15T06:29:23.331Z,99081.34
2023-05-15T06:32:08.401Z,99075.91
2023-05-15T06:34:53.765Z,99076.81
2023-05-15T06:37:38.672Z,99070.00
2023-05-15T06:40:23.768Z,99071.22
2023-05-15T06:43:08.728Z,99070.78
2023-05-15T06:45:53.548Z,99068.31
2023-05-15T06:48:38.489Z,99068.94
2023-05-15T06:51:22.991Z,99075.84
2023-05-15T06:54:07.957Z,99062.97
2023-05-15T06:56:52.493Z,99067.78
2023-05-15T06:59:37.573Z,99069.59
2023-05-15T07:02:22.554Z,99065.81
2023-05-15T07:05:08.129Z,99060.16
2023-05-15T07:07:53.414Z,99069.84
2023-05-15T07:10:37.990Z,99066.44
2023-05-15T07:13:23.175Z,99061.16
2023-05-15T07:16:08.391Z,99047.94
2023-05-15T07:18:53.116Z,99050.16
2023-05-15T07:21:38.790Z,99045.59
2023-05-15T07:24:23.363Z,99045.31
2023-05-15T07:27:07.933Z,99041.63
2023-05-15T07:29:53.355Z,99033.16
2023-05-15T07:32:37.943Z,99035.91
2023-05-15T07:35:22.305Z,99045.66
2023-05-15T07:38:06.952Z,99038.81
2023-05-15T07:40:51.889Z,99033.97
2023-05-15T07:43:36.884Z,99040.63
2023-05-15T07:46:21.484Z,99036.59
2023-05-15T07:49:06.299Z,99031.75
2023-05-15T07:51:51.246Z,99029.78
2023-05-15T07:54:36.725Z,99039.47
2023-05-15T07:57:21.571Z,99039.72
2023-05-15T08:00:12.122Z,99027.94
2023-05-15T08:02:59.274Z,99024.59
2023-05-15T08:05:44.248Z,99027.28
2023-05-15T08:08:28.662Z,99014.50
2023-05-15T08:11:13.870Z,99032.00
2023-05-15T08:13:58.749Z,99028.09
2023-05-15T08:16:43.734Z,99022.91
2023-05-15T08:19:28.575Z,99034.44
2023-05-15T08:22:13.415Z,99014.03
2023-05-15T08:24:58.897Z,99014.91
2023-05-15T08:27:43.511Z,99020.72
2023-05-15T08:30:28.053Z,99026.53
2023-05-15T08:33:12.940Z,99039.56
2023-05-15T08:35:57.867Z,99026.84
2023-05-15T08:38:42.314Z,99024.53
2023-05-15T08:41:41.148Z,99019.94
2023-05-15T08:44:26.970Z,99014.13
2023-05-15T08:47:14.276Z,99008.84
2023-05-15T08:50:06.191Z,99021.75
2023-05-15T08:52:52.680Z,99021.50
2023-05-15T08:55:37.565Z,99013.78
2023-05-15T08:58:25.358Z,99013.75
2023-05-15T09:01:12.486Z,99019.19
2023-05-15T09:03:57.293Z,99010.94
2023-05-15T09:06:43.780Z,99014.38
2023-05-15T09:09:31.879Z,99008.41
2023-05-15T09:12:17.370Z,99006.47
2023-05-15T09:15:09.194Z,99003.06
2023-05-15T09:17:54.462Z,98986.81
2023-05-15T09:20:39.509Z,98984.13
2023-05-15T09:23:26.921Z,98994.47
2023-05-15T09:26:12.087Z,98976.03
2023-05-15T09:29:02.481Z,98999.34
2023-05-15T09:31:47.597Z,98980.66
2023-05-15T09:34:34.002Z,98976.75
2023-05-15T09:37:30.396Z,98976.84
2023-05-15T09:40:18.487Z,98979.00
2023-05-15T09:43:02.946Z,98977.41
2023-05-15T09:45:48.353Z,98964.41
2023-05-15T09:48:34.134Z,98962.19
2023-05-15T09:51:20.051Z,98956.09
2023-05-15T09:54:05.339Z,98961.63
2023-05-15T09:56:50.052Z,98950.78
2023-05-15T09:59:34.836Z,98958.50
2023-05-15T10:02:24.204Z,98942.84
2023-05-15T10:05:11.246Z,98936.88
2023-05-15T10:07:57.105Z,98937.41
2023-05-15T10:10:43.045Z,98940.25
2023-05-15T10:13:33.670Z,98941.78
2023-05-15T10:16:21.101Z,98925.22
2023-05-15T10:19:08.643Z,98918.13
2023-05-15T10:21:56.011Z,98926.56
2023-05-15T10:24:43.770Z,98913.84
2023-05-15T10:27:30.308Z,98920.22
2023-05-15T10:30:16.466Z,98913.16
2023-05-15T10:33:03.700Z,98901.69
2023-05-15T10:35:50.862Z,98907.03
2023-05-15T10:38:36.724Z,98904.25
2023-05-15T10:41:22.901Z,98906.66
2023-05-15T10:44:07.675Z,98912.75
2023-05-15T10:46:53.664Z,98902.97
2023-05-15T10:49:38.515Z,98895.50
2023-05-15T10:52:24.246Z,98908.38
2023-05-15T10:55:13.925Z,98888.88
2023-05-15T10:57:59.059Z,98897.91
2023-05-15T11:00:44.944Z,98890.16
2023-05-15T11:03:48.019Z,98881.16
2023-05-15T11:06:34.356Z,98908.19
2023-05-15T11:09:27.435Z,98887.34
2023-05-15T11:40:00.212Z,98862.38
2023-05-15T11:43:04.876Z,98876.91
2023-05-15T11:46:07.790Z,98864.78
2023-05-15T11:48:52.910Z,98865.59
2023-05-15T11:51:42.786Z,98864.19
2023-05-15T11:54:27.547Z,98863.75
2023-05-15T11:57:12.266Z,98858.69
2023-05-15T11:59:57.279Z,98857.97
2023-05-15T12:02:42.541Z,98846.38
2023-05-15T12:05:27.402Z,98863.75
2023-05-15T12:08:12.679Z,98859.50
2023-05-15T12:10:58.296Z,98871.91
2023-05-15T12:13:43.153Z,98870.28
2023-05-15T12:16:28.043Z,98874.38
2023-05-15T12:19:12.866Z,98861.53
2023-05-15T12:21:57.864Z,98862.19
2023-05-15T12:24:42.741Z,98854.63
2023-05-15T12:27:27.999Z,98852.03
2023-05-15T12:30:13.824Z,98844.19
2023-05-15T12:33:06.547Z,98843.38
2023-05-15T12:35:58.950Z,98841.06
2023-05-15T12:38:44.755Z,98828.03
2023-05-15T12:41:30.855Z,98814.63
2023-05-15T12:44:19.232Z,98825.38
2023-05-15T12:47:04.976Z,98834.84
2023-05-15T12:49:50.608Z,98818.84
2023-05-15T12:52:35.517Z,98819.53
2023-05-15T12:55:25.104Z,98818.53
2023-05-15T12:58:11.749Z,98820.78
2023-05-15T13:00:56.988Z,98810.00
2023-05-15T13:03:43.628Z,98808.69
2023-05-15T13:06:42.012Z,98820.53
2023-05-15T13:09:32.578Z,98803.66
2023-05-15T13:12:20.628Z,98795.16
2023-05-15T13:15:06.440Z,98791.53
2023-05-15T13:18:11.075Z,98790.00
2023-05-15T13:20:56.182Z,98775.91
2023-05-15T13:23:41.394Z,98777.44
2023-05-15T13:26:26.416Z,98766.78
2023-05-15T13:29:11.483Z,98769.63
2023-05-15T13:31:56.381Z,98760.38
2023-05-15T13:34:41.675Z,98750.56
2023-05-15T13:37:26.806Z,98759.00
2023-05-15T13:40:12.216Z,98753.09
2023-05-15T13:42:57.372Z,98757.41
2023-05-15T13:45:42.178Z,98753.56
2023-05-15T13:48:27.535Z,98753.53
2023-05-15T13:51:12.385Z,98762.31
2023-05-15T13:53:57.453Z,98763.75
2023-05-15T13:56:42.620Z,98765.31
2023-05-15T13:59:27.871Z,98760.19
2023-05-15T14:02:12.507Z,98744.59
2023-05-15T14:04:57.276Z,98753.16
2023-05-15T14:07:42.443Z,98748.69
2023-05-15T14:10:27.492Z,98744.72
2023-05-15T14:13:12.165Z,98748.19
2023-05-15T14:15:57.603Z,98746.31
2023-05-15T14:18:42.342Z,98733.28
2023-05-15T14:21:27.649Z,98742.25
2023-05-15T14:24:13.060Z,98753.69
2023-05-15T14:26:58.265Z,98744.19
2023-05-15T14:29:44.191Z,98738.72
2023-05-15T14:32:29.326Z,98727.53
2023-05-15T14:35:14.909Z,98741.66
2023-05-15T14:37:59.697Z,98741.09
2023-05-15T14:40:44.815Z,98737.84
2023-05-15T14:43:29.735Z,98742.19
2023-05-15T14:46:14.786Z,98744.59
2023-05-15T14:48:59.977Z,98743.25
2023-05-15T14:51:45.026Z,98743.69
2023-05-15T14:54:29.896Z,98750.06
2023-05-15T14:57:19.624Z,98747.13
2023-05-15T15:00:05.874Z,98740.72
2023-05-15T15:02:51.134Z,98740.66
2023-05-15T15:05:35.861Z,98730.88
2023-05-15T15:08:20.644Z,98730.69
2023-05-15T15:11:06.526Z,98731.91
2023-05-15T15:13:51.188Z,98727.06
2023-05-15T15:16:36.523Z,98724.03
2023-05-15T15:19:21.422Z,98730.03
2023-05-15T15:22:06.193Z,98723.75
2023-05-15T15:24:51.620Z,98721.13
2023-05-15T15:27:36.446Z,98725.88
2023-05-15T15:30:21.472Z,98732.03
2023-05-15T15:33:06.899Z,98719.09
2023-05-15T15:35:52.704Z,98724.84
2023-05-15T15:38:41.096Z,98728.38
2023-05-15T15:41:30.106Z,98725.53
2023-05-15T15:44:15.274Z,98719.03
2023-05-15T15:46:59.926Z,98710.94
2023-05-15T15:49:44.844Z,98704.69
2023-05-15T15:52:29.829Z,98698.09
2023-05-15T15:55:15.180Z,98707.06
2023-05-15T15:57:59.773Z,98690.03
2023-05-15T16:00:44.983Z,98686.03
2023-05-15T16:03:30.758Z,98675.84
2023-05-15T16:06:16.283Z,98670.41
2023-05-15T16:09:01.009Z,98684.13
2023-05-15T16:11:45.936Z,98674.22
2023-05-15T16:14:31.095Z,98670.31
2023-05-15T16:17:15.828Z,98668.72
2023-05-15T16:20:00.716Z,98667.88
2023-05-15T16:22:46.120Z,98668.09
2023-05-15T16:25:30.852Z,98677.59
2023-05-15T16:28:15.844Z,98671.50
2023-05-15T16:31:02.425Z,98678.38
2023-05-15T16:33:47.340Z,98689.66
2023-05-15T16:36:32.565Z,98703.13
2023-05-15T16:39:17.441Z,98713.63
2023-05-15T16:42:02.975Z,98706.09
2023-05-15T16:44:48.012Z,98702.56
2023-05-15T16:47:33.620Z,98694.25
2023-05-15T16:50:18.527Z,98703.19
2023-05-15T16:53:04.038Z,98713.22
2023-05-15T16:55:49.033Z,98709.41
2023-05-15T16:58:34.179Z,98712.13
2023-05-15T17:01:18.862Z,98714.56
2023-05-15T17:04:04.272Z,98715.19
2023-05-15T17:06:49.452Z,98714.53
2023-05-15T17:09:35.687Z,98719.78
2023-05-15T17:12:22.881Z,98719.28
2023-05-15T17:15:08.352Z,98722.94
2023-05-15T17:17:53.300Z,98720.59
2023-05-15T17:20:38.185Z,98727.63
2023-05-15T17:23:23.280Z,98730.19
2023-05-15T17:26:08.147Z,98740.91
2023-05-15T17:28:53.210Z,98738.25
2023-05-15T17:31:38.397Z,98734.34
2023-05-15T17:34:23.398Z,98741.06
2023-05-15T17:37:08.621Z,98737.63
2023-05-15T17:39:54.314Z,98751.22
2023-05-15T17:42:39.292Z,98742.84
2023-05-15T17:45:24.017Z,98738.88
2023-05-15T17:48:08.790Z,98745.59
2023-05-15T17:50:53.857Z,98750.44
2023-05-15T17:53:38.420Z,98756.84
2023-05-15T17:56:24.354Z,98755.69
2023-05-15T17:59:08.983Z,98758.69
2023-05-15T18:01:54.140Z,98761.03
2023-05-15T18:04:38.984Z,98758.84
2023-05-15T18:07:24.866Z,98757.66
2023-05-15T18:10:10.401Z,98759.63
2023-05-15T18:12:55.139Z,98763.09
2023-05-15T18:15:40.072Z,98766.88
2023-05-15T18:18:25.072Z,98770.59
2023-05-15T18:21:09.935Z,98772.22
2023-05-15T18:23:55.483Z,98777.53
2023-05-15T18:26:40.453Z,98773.50
2023-05-15T18:29:25.399Z,98772.81
2023-05-15T18:32:09.991Z,98791.94
2023-05-15T18:34:54.942Z,98798.28
2023-05-15T18:37:39.973Z,98810.34
2023-05-15T18:40:25.843Z,98811.22
2023-05-15T18:43:10.487Z,98811.03
2023-05-15T18:45:55.466Z,98811.78
2023-05-15T18:48:40.388Z,98805.81
2023-05-15T18:51:25.618Z,98808.03
2023-05-15T18:54:10.444Z,98815.28
2023-05-15T18:56:55.640Z,98815.78
2023-05-15T18:59:41.326Z,98811.13
2023-05-15T19:02:26.414Z,98814.59
2023-05-15T19:05:11.220Z,98815.16
2023-05-15T19:07:56.245Z,98816.03
2023-05-15T19:10:40.954Z,98814.84
2023-05-15T19:13:29.211Z,98808.06
2023-05-15T19:16:14.449Z,98812.50
2023-05-15T19:18:59.229Z,98811.25
2023-05-15T19:21:44.209Z,98810.75
2023-05-15T19:24:29.987Z,98806.31
2023-05-15T19:27:16.353Z,98800.91
2023-05-15T19:30:01.672Z,98807.66
2023-05-15T19:32:46.502Z,98800.91
2023-05-15T19:35:31.367Z,98803.03
2023-05-15T19:38:16.402Z,98797.81
2023-05-15T19:41:01.389Z,98795.97
2023-05-15T19:43:46.401Z,98786.59
2023-05-15T19:46:31.362Z,98787.94
2023-05-15T19:49:16.520Z,98781.19
2023-05-15T19:52:01.626Z,98789.75
2023-05-15T19:54:46.211Z,98774.41
2023-05-15T19:57:31.220Z,98775.97
2023-05-15T20:00:16.378Z,98778.06
2023-05-15T20:03:01.773Z,98780.19
2023-05-15T20:05:46.555Z,98784.16
2023-05-15T20:08:31.921Z,98784.44
2023-05-15T20:11:16.535Z,98776.88
2023-05-15T20:14:01.266Z,98778.72
2023-05-15T20:16:46.265Z,98777.66
2023-05-15T20:19:31.279Z,98772.44
2023-05-15T20:22:16.649Z,98776.31
2023-05-15T20:25:01.309Z,98772.66
2023-05-15T20:27:46.204Z,98765.91
2023-05-15T20:30:31.429Z,98768.22
2023-05-15T20:33:16.620Z,98764.84
2023-05-15T20:36:03.302Z,98765.59
2023-05-15T20:38:51.573Z,98760.91
2023-05-15T20:41:36.930Z,98761.66
2023-05-15T20:44:21.550Z,98755.69
2023-05-15T20:47:06.648Z,98763.22
2023-05-15T20:49:51.409Z,98759.56
2023-05-15T20:52:36.469Z,98755.38
2023-05-15T20:55:21.929Z,98761.38
2023-05-15T20:58:07.043Z,98760.59
2023-05-15T21:00:51.893Z,98754.81
2023-05-15T21:03:36.815Z,98752.69
2023-05-15T21:06:21.909Z,98750.88
2023-05-15T21:09:06.821Z,98749.03
2023-05-15T21:11:51.597Z,98733.41
2023-05-15T21:14:36.049Z,98734.94
2023-05-15T21:17:20.948Z,98741.22
2023-05-15T21:20:06.588Z,98733.41
2023-05-15T21:22:51.319Z,98738.31
2023-05-15T21:25:37.404Z,98725.84
2023-05-15T21:28:22.277Z,98716.50
2023-05-15T21:31:10.813Z,98729.53
2023-05-15T21:33:55.481Z,98731.06
2023-05-15T21:36:40.699Z,98733.97
2023-05-15T21:39:25.624Z,98724.88
2023-05-15T21:42:10.601Z,98724.09
2023-05-15T21:44:55.811Z,98732.50
2023-05-15T21:47:40.872Z,98734.31
2023-05-15T21:50:26.217Z,98726.31
2023-05-15T21:53:11.268Z,98731.53
2023-05-15T21:56:00.666Z,98734.63
2023-05-15T21:58:45.845Z,98738.56
2023-05-15T22:01:30.642Z,98734.22
2023-05-15T22:04:15.436Z,98734.28
2023-05-15T22:07:00.340Z,98731.69
2023-05-15T22:09:45.160Z,98736.38
2023-05-15T22:12:31.611Z,98735.88
2023-05-15T22:15:16.723Z,98724.19
2023-05-15T22:18:03.313Z,98733.09
2023-05-15T22:20:48.434Z,98732.31
2023-05-15T22:23:33.143Z,98740.38
2023-05-15T22:26:20.465Z,98725.31
2023-05-15T22:29:05.727Z,98730.03
2023-05-15T22:31:50.839Z,98729.56
2023-05-15T22:34:36.099Z,98730.59
2023-05-15T22:37:21.210Z,98729.34
2023-05-15T22:40:09.341Z,98734.06
2023-05-15T22:42:54.290Z,98727.88
2023-05-15T22:45:39.121Z,98732.59
2023-05-15T22:48:24.081Z,98735.25
2023-05-15T22:51:09.707Z,98726.47
2023-05-15T22:53:55.033Z,98733.81
2023-05-15T22:56:39.849Z,98728.84
2023-05-15T22:59:25.490Z,98731.75
2023-05-15T23:02:10.300Z,98729.72
2023-05-15T23:04:55.280Z,98720.41
2023-05-15T23:07:40.649Z,98716.28
2023-05-15T23:10:25.884Z,98717.09
2023-05-15T23:13:11.126Z,98713.22
2023-05-15T23:15:56.239Z,98716.69
2023-05-15T23:18:41.526Z,98710.75
2023-05-15T23:21:26.296Z,98711.59
2023-05-15T23:24:11.157Z,98716.09
2023-05-15T23:26:56.161Z,98716.88
2023-05-15T23:29:40.742Z,98718.22
2023-05-15T23:32:26.107Z,98714.84
2023-05-15T23:35:10.787Z,98719.06
2023-05-15T23:37:56.046Z,98714.41
2023-05-15T23:40:40.826Z,98719.88
2023-05-15T23:43:25.635Z,98716.50
2023-05-15T23:46:10.217Z,98720.94
2023-05-15T23:48:55.262Z,98709.53
2023-05-15T23:51:40.140Z,98712.50
2023-05-15T23:54:25.736Z,98718.75
2023-05-15T23:57:10.935Z,98710.00
2023-05-15T23:59:55.399Z,98698.13
